Time,TemperatureF,DewpointF,PressureIn,WindDirection,WindDirectionDegrees,WindSpeedMPH,WindSpeedGustMPH,Humidity,HourlyPrecipIn,Conditions,Clouds,dailyrainin,SoftwareType,DateUTC
2013-12-17 00:09:00,22.6,21.0,30.18,NW,311,3.0,6.0,94,0.00,,,0.00,weatherlink.com 1.10,2013-12-17 06:09:00,
2013-12-17 00:24:00,22.6,21.0,30.18,NW,317,3.0,6.0,94,0.00,,,0.00,weatherlink.com 1.10,2013-12-17 06:24:00,
2013-12-17 00:39:00,22.7,21.0,30.19,NW,315,6.0,8.0,94,0.00,,,0.00,weatherlink.com 1.10,2013-12-17 06:39:00,
2013-12-17 00:54:00,22.7,21.0,30.17,WNW,289,8.0,9.0,94,0.00,,,0.00,weatherlink.com 1.10,2013-12-17 06:54:00,
2013-12-17 01:09:00,22.8,21.0,30.16,WNW,288,0.0,6.0,94,0.00,,,0.00,weatherlink.com 1.10,2013-12-17 07:09:00,
2013-12-17 01:24:00,22.9,22.0,30.18,West,277,4.0,7.0,94,0.00,,,0.00,weatherlink.com 1.10,2013-12-17 07:24:00,
2013-12-17 01:39:00,23.0,22.0,30.17,West,260,3.0,5.0,94,0.00,,,0.00,weatherlink.com 1.10,2013-12-17 07:39:00,
2013-12-17 01:54:00,23.1,22.0,30.18,SW,230,2.0,6.0,94,0.00,,,0.00,weatherlink.com 1.10,2013-12-17 07:54:00,
2013-12-17 02:09:00,23.3,22.0,30.19,WNW,290,2.0,7.0,94,0.00,,,0.00,weatherlink.com 1.10,2013-12-17 08:09:00,
2013-12-17 02:24:00,23.3,22.0,30.18,NW,304,0.0,3.0,94,0.00,,,0.00,weatherlink.com 1.10,2013-12-17 08:24:00,
2013-12-17 02:39:00,23.3,22.0,30.19,NW,325,2.0,6.0,94,0.00,,,0.00,weatherlink.com 1.10,2013-12-17 08:39:00,
2013-12-17 02:54:00,23.3,22.0,30.19,WNW,298,3.0,4.0,94,0.00,,,0.00,weatherlink.com 1.10,2013-12-17 08:54:00,
2013-12-17 03:09:00,23.5,22.0,30.20,NW,310,2.0,5.0,94,0.00,,,0.00,weatherlink.com 1.10,2013-12-17 09:09:00,
2013-12-17 03:24:00,23.6,22.0,30.17,West,281,0.0,5.0,94,0.00,,,0.00,weatherlink.com 1.10,2013-12-17 09:24:00,
2013-12-17 03:39:00,23.8,22.0,30.18,NW,308,6.0,8.0,94,0.00,,,0.00,weatherlink.com 1.10,2013-12-17 09:39:00,
2013-12-17 03:54:00,23.6,22.0,30.16,WNW,290,1.0,4.0,93,0.00,,,0.00,weatherlink.com 1.10,2013-12-17 09:54:00,
2013-12-17 04:09:00,23.5,22.0,30.17,West,259,4.0,6.0,94,0.00,,,0.00,weatherlink.com 1.10,2013-12-17 10:09:00,
2013-12-17 04:24:00,22.7,21.0,30.16,WSW,250,2.0,3.0,93,0.00,,,0.00,weatherlink.com 1.10,2013-12-17 10:24:00,
2013-12-17 04:39:00,22.0,21.0,30.16,SW,226,3.0,4.0,94,0.00,,,0.00,weatherlink.com 1.10,2013-12-17 10:39:00,
2013-12-17 04:54:00,21.3,20.0,30.17,WSW,252,1.0,4.0,94,0.00,,,0.00,weatherlink.com 1.10,2013-12-17 10:54:00,
2013-12-17 05:09:00,21.1,20.0,30.17,West,265,4.0,5.0,94,0.00,,,0.00,weatherlink.com 1.10,2013-12-17 11:09:00,
2013-12-17 05:24:00,21.0,20.0,30.18,West,260,2.0,7.0,94,0.00,,,0.00,weatherlink.com 1.10,2013-12-17 11:24:00,
2013-12-17 05:39:00,20.4,19.0,30.18,West,270,1.0,5.0,94,0.00,,,0.00,weatherlink.com 1.10,2013-12-17 11:39:00,
2013-12-17 05:54:00,20.3,19.0,30.18,West,281,0.0,5.0,95,0.00,,,0.00,weatherlink.com 1.10,2013-12-17 11:54:00,
2013-12-17 06:09:00,20.1,19.0,30.18,West,273,1.0,5.0,94,0.00,,,0.00,weatherlink.com 1.10,2013-12-17 12:09:00,
2013-12-17 06:24:00,19.8,18.0,30.18,West,274,1.0,6.0,94,0.00,,,0.00,weatherlink.com 1.10,2013-12-17 12:24:00,
2013-12-17 06:39:00,19.4,18.0,30.18,SW,227,0.0,5.0,94,0.00,,,0.00,weatherlink.com 1.10,2013-12-17 12:39:00,
2013-12-17 06:54:00,19.2,18.0,30.18,SW,236,0.0,3.0,94,0.00,,,0.00,weatherlink.com 1.10,2013-12-17 12:54:00,
2013-12-17 07:09:00,19.5,18.0,30.17,SSW,205,3.0,4.0,95,0.00,,,0.00,weatherlink.com 1.10,2013-12-17 13:09:00,
2013-12-17 07:24:00,19.3,18.0,30.17,SSW,194,2.0,5.0,94,0.00,,,0.00,weatherlink.com 1.10,2013-12-17 13:24:00,
2013-12-17 07:39:00,19.4,18.0,30.16,SSE,164,3.0,5.0,94,0.00,,,0.00,weatherlink.com 1.10,2013-12-17 13:39:00,
2013-12-17 07:54:00,19.1,18.0,30.16,SW,220,1.0,5.0,94,0.00,,,0.00,weatherlink.com 1.10,2013-12-17 13:54:00,
2013-12-17 08:09:00,19.8,18.0,30.17,SW,215,5.0,7.0,94,0.00,,,0.00,weatherlink.com 1.10,2013-12-17 14:09:00,
2013-12-17 08:24:00,22.2,21.0,30.17,SSW,194,4.0,7.0,94,0.00,,,0.00,weatherlink.com 1.10,2013-12-17 14:24:00,
2013-12-17 08:39:00,24.1,22.0,30.17,SSW,207,2.0,8.0,93,0.00,,,0.00,weatherlink.com 1.10,2013-12-17 14:39:00,
2013-12-17 08:54:00,25.0,23.0,30.17,SW,217,4.0,8.0,93,0.00,,,0.00,weatherlink.com 1.10,2013-12-17 14:54:00,
2013-12-17 09:09:00,25.7,24.0,30.17,SW,235,3.0,8.0,91,0.00,,,0.00,weatherlink.com 1.10,2013-12-17 15:09:00,
2013-12-17 09:25:00,26.5,24.0,30.18,West,262,10.0,11.0,90,0.00,,,0.00,weatherlink.com 1.10,2013-12-17 15:25:00,
2013-12-17 09:40:00,27.3,24.0,30.17,West,277,6.0,9.0,88,0.00,,,0.00,weatherlink.com 1.10,2013-12-17 15:40:00,
2013-12-17 09:55:00,29.3,25.0,30.19,WNW,282,7.0,12.0,85,0.00,,,0.00,weatherlink.com 1.10,2013-12-17 15:55:00,
2013-12-17 10:10:00,29.7,25.0,30.20,WNW,300,12.0,13.0,84,0.00,,,0.00,weatherlink.com 1.10,2013-12-17 16:10:00,
2013-12-17 10:25:00,29.5,27.0,30.20,West,270,6.0,14.0,90,0.00,,,0.00,weatherlink.com 1.10,2013-12-17 16:25:00,
2013-12-17 10:40:00,29.6,27.0,30.20,WNW,285,5.0,13.0,91,0.00,,,0.00,weatherlink.com 1.10,2013-12-17 16:40:00,
2013-12-17 10:55:00,30.5,28.0,30.20,WNW,298,9.0,13.0,90,0.00,,,0.00,weatherlink.com 1.10,2013-12-17 16:55:00,
2013-12-17 11:10:00,30.8,28.0,30.19,West,278,9.0,19.0,88,0.00,,,0.00,weatherlink.com 1.10,2013-12-17 17:10:00,
2013-12-17 11:25:00,30.5,28.0,30.18,West,268,12.0,13.0,90,0.00,,,0.00,weatherlink.com 1.10,2013-12-17 17:25:00,
2013-12-17 11:40:00,31.4,29.0,30.16,West,268,7.0,13.0,89,0.00,,,0.00,weatherlink.com 1.10,2013-12-17 17:40:00,
2013-12-17 11:55:00,32.2,29.0,30.16,West,265,5.0,11.0,88,0.01,,,0.01,weatherlink.com 1.10,2013-12-17 17:55:00,
2013-12-17 12:25:00,33.7,29.0,30.16,West,271,13.0,13.0,83,0.01,,,0.01,weatherlink.com 1.10,2013-12-17 18:25:00,
2013-12-17 12:40:00,34.7,29.0,30.15,West,261,6.0,16.0,81,0.01,,,0.01,weatherlink.com 1.10,2013-12-17 18:40:00,
2013-12-17 12:55:00,35.0,29.0,30.16,West,279,10.0,17.0,80,0.02,,,0.03,weatherlink.com 1.10,2013-12-17 18:55:00,
2013-12-17 13:10:00,35.0,29.0,30.15,WNW,288,6.0,13.0,79,0.04,,,0.01,weatherlink.com 1.10,2013-12-17 19:10:00,
2013-12-17 13:25:00,35.2,29.0,30.15,WNW,288,10.0,15.0,78,0.05,,,0.02,weatherlink.com 1.10,2013-12-17 19:25:00,
2013-12-17 13:40:00,35.6,28.0,30.16,West,271,10.0,16.0,75,0.07,,,0.04,weatherlink.com 1.10,2013-12-17 19:40:00,
2013-12-17 13:55:00,36.0,28.0,30.16,WNW,283,10.0,19.0,74,0.07,,,0.06,weatherlink.com 1.10,2013-12-17 19:55:00,
2013-12-17 14:10:00,36.3,29.0,30.16,West,260,9.0,16.0,74,0.06,,,0.07,weatherlink.com 1.10,2013-12-17 20:10:00,
2013-12-17 14:25:00,36.5,29.0,30.15,WNW,285,6.0,15.0,73,0.06,,,0.09,weatherlink.com 1.10,2013-12-17 20:25:00,
2013-12-17 14:40:00,36.4,29.0,30.16,WNW,287,10.0,19.0,73,0.07,,,0.11,weatherlink.com 1.10,2013-12-17 20:40:00,
2013-12-17 14:55:00,36.3,28.0,30.16,WSW,251,10.0,17.0,72,0.05,,,0.11,weatherlink.com 1.10,2013-12-17 20:55:00,
2013-12-17 15:10:00,36.7,28.0,30.16,West,270,7.0,19.0,71,0.06,,,0.13,weatherlink.com 1.10,2013-12-17 21:10:00,
2013-12-17 15:25:00,36.4,25.0,30.17,West,265,13.0,22.0,64,0.04,,,0.13,weatherlink.com 1.10,2013-12-17 21:25:00,
2013-12-17 15:40:00,35.5,22.0,30.17,West,276,7.0,17.0,59,0.03,,,0.14,weatherlink.com 1.10,2013-12-17 21:40:00,
2013-12-17 15:55:00,35.1,23.0,30.19,WNW,302,5.0,14.0,61,0.04,,,0.15,weatherlink.com 1.10,2013-12-17 21:55:00,
2013-12-17 16:11:00,34.2,23.0,30.19,WNW,286,6.0,11.0,63,0.02,,,0.15,weatherlink.com 1.10,2013-12-17 22:11:00,
2013-12-17 16:26:00,33.7,21.0,30.19,WNW,301,6.0,13.0,61,0.02,,,0.15,weatherlink.com 1.10,2013-12-17 22:26:00,
2013-12-17 16:41:00,33.3,20.0,30.19,West,275,11.0,18.0,59,0.01,,,0.15,weatherlink.com 1.10,2013-12-17 22:41:00,
2013-12-17 16:56:00,32.5,19.0,30.20,West,278,11.0,13.0,59,0.00,,,0.15,weatherlink.com 1.10,2013-12-17 22:56:00,
2013-12-17 17:11:00,32.2,19.0,30.20,WNW,300,9.0,12.0,59,0.00,,,0.15,weatherlink.com 1.10,2013-12-17 23:11:00,
2013-12-17 17:26:00,31.7,19.0,30.21,WNW,290,6.0,12.0,60,0.00,,,0.15,weatherlink.com 1.10,2013-12-17 23:26:00,
2013-12-17 17:41:00,31.4,19.0,30.21,WNW,288,7.0,13.0,61,0.00,,,0.15,weatherlink.com 1.10,2013-12-17 23:41:00,
2013-12-17 17:56:00,31.0,19.0,30.22,West,281,5.0,11.0,62,0.00,,,0.15,weatherlink.com 1.10,2013-12-17 23:56:00,
2013-12-17 18:11:00,31.0,19.0,30.22,West,275,8.0,15.0,62,0.00,,,0.15,weatherlink.com 1.10,2013-12-18 00:11:00,
2013-12-17 18:26:00,31.3,19.0,30.23,WNW,296,4.0,15.0,61,0.00,,,0.15,weatherlink.com 1.10,2013-12-18 00:26:00,
2013-12-17 18:41:00,31.0,19.0,30.22,WNW,294,4.0,14.0,61,0.00,,,0.15,weatherlink.com 1.10,2013-12-18 00:41:00,
2013-12-17 18:56:00,30.8,19.0,30.23,WNW,282,7.0,14.0,61,0.00,,,0.15,weatherlink.com 1.10,2013-12-18 00:56:00,
2013-12-17 19:11:00,30.5,18.0,30.23,West,281,6.0,17.0,60,0.00,,,0.15,weatherlink.com 1.10,2013-12-18 01:11:00,
2013-12-17 19:26:00,30.0,18.0,30.24,WSW,253,10.0,14.0,60,0.00,,,0.15,weatherlink.com 1.10,2013-12-18 01:26:00,
2013-12-17 19:41:00,30.0,17.0,30.24,West,263,13.0,15.0,58,0.00,,,0.15,weatherlink.com 1.10,2013-12-18 01:41:00,
2013-12-17 19:56:00,29.6,16.0,30.25,NW,304,17.0,20.0,57,0.00,,,0.15,weatherlink.com 1.10,2013-12-18 01:56:00,
2013-12-17 20:11:00,29.1,15.0,30.25,WNW,290,5.0,17.0,57,0.00,,,0.15,weatherlink.com 1.10,2013-12-18 02:11:00,
2013-12-17 20:26:00,28.0,15.0,30.25,WNW,287,6.0,11.0,59,0.00,,,0.15,weatherlink.com 1.10,2013-12-18 02:26:00,
2013-12-17 20:41:00,27.4,15.0,30.26,WNW,302,6.0,8.0,60,0.00,,,0.15,weatherlink.com 1.10,2013-12-18 02:41:00,
2013-12-17 20:56:00,27.0,15.0,30.26,WNW,288,4.0,8.0,61,0.00,,,0.15,weatherlink.com 1.10,2013-12-18 02:56:00,
2013-12-17 21:11:00,26.4,14.0,30.26,WNW,284,6.0,9.0,61,0.00,,,0.15,weatherlink.com 1.10,2013-12-18 03:11:00,
2013-12-17 21:26:00,26.3,15.0,30.26,WNW,292,4.0,8.0,62,0.00,,,0.15,weatherlink.com 1.10,2013-12-18 03:26:00,
2013-12-17 21:41:00,26.2,15.0,30.26,NW,306,6.0,9.0,62,0.00,,,0.15,weatherlink.com 1.10,2013-12-18 03:41:00,
2013-12-17 21:56:00,26.0,14.0,30.27,WNW,295,3.0,7.0,62,0.00,,,0.15,weatherlink.com 1.10,2013-12-18 03:56:00,
2013-12-17 22:11:00,25.9,15.0,30.27,West,274,2.0,6.0,63,0.00,,,0.15,weatherlink.com 1.10,2013-12-18 04:11:00,
2013-12-17 22:26:00,25.7,14.0,30.27,West,277,3.0,7.0,62,0.00,,,0.15,weatherlink.com 1.10,2013-12-18 04:26:00,
2013-12-17 22:42:00,25.4,14.0,30.28,West,275,3.0,8.0,63,0.00,,,0.15,weatherlink.com 1.10,2013-12-18 04:42:00,
2013-12-17 22:57:00,25.5,14.0,30.27,NW,309,6.0,9.0,63,0.00,,,0.15,weatherlink.com 1.10,2013-12-18 04:57:00,
2013-12-17 23:12:00,25.3,14.0,30.28,WNW,286,5.0,11.0,63,0.00,,,0.15,weatherlink.com 1.10,2013-12-18 05:12:00,
2013-12-17 23:27:00,24.6,14.0,30.28,WNW,284,7.0,7.0,63,0.00,,,0.15,weatherlink.com 1.10,2013-12-18 05:27:00,
2013-12-17 23:42:00,24.1,13.0,30.27,West,280,2.0,7.0,63,0.00,,,0.15,weatherlink.com 1.10,2013-12-18 05:42:00,
2013-12-17 23:57:00,24.1,13.0,30.27,WNW,295,4.0,7.0,63,0.00,,,0.15,weatherlink.com 1.10,2013-12-18 05:57:00,